Time;durP1;ratioP1;P1;durP2;ratioP2;P2;SDS_P1;SDS_P2;PMS_P1;PMS_P2;Temp;Humidity;BMP_temperature;BMP_pressure;BME280_temperature;BME280_humidity;BME280_pressure;Samples;Min_cycle;Max_cycle;Signal;HPM_P1;HPM_P2
2020/12/08 00:00:08;;;;;;;26.48;14.65;;;3.10;77.00;;;;;;5024937;28;20038;-63
2020/12/08 00:02:34;;;;;;;25.95;14.73;;;3.20;77.30;;;;;;5023581;28;20029;-63
2020/12/08 00:05:00;;;;;;;31.67;14.55;;;3.30;77.30;;;;;;5018961;28;20064;-63
2020/12/08 00:07:25;;;;;;;26.08;13.30;;;3.30;76.90;;;;;;5022818;28;20026;-63
2020/12/08 00:09:51;;;;;;;30.55;13.82;;;3.20;76.80;;;;;;5026140;28;20025;-63
2020/12/08 00:12:16;;;;;;;38.85;14.25;;;3.10;77.00;;;;;;5054817;28;20045;-62
2020/12/08 00:14:42;;;;;;;25.83;13.18;;;3.10;77.10;;;;;;5020787;28;20053;-63
2020/12/08 00:17:08;;;;;;;22.98;13.55;;;3.10;76.90;;;;;;5022516;28;20092;-63
2020/12/08 00:19:33;;;;;;;47.53;15.88;;;3.30;77.30;;;;;;5021083;28;20347;-63
2020/12/08 00:21:59;;;;;;;29.25;14.35;;;3.00;77.60;;;;;;5026140;28;20030;-63
2020/12/08 00:24:25;;;;;;;64.93;15.55;;;3.00;78.20;;;;;;5036180;28;20432;-63
2020/12/08 00:26:51;;;;;;;52.80;14.68;;;3.00;78.00;;;;;;5042064;28;20037;-64
2020/12/08 00:29:16;;;;;;;32.40;13.48;;;2.90;78.10;;;;;;5038860;28;20079;-63
2020/12/08 00:31:42;;;;;;;29.92;13.25;;;3.00;77.60;;;;;;5042300;28;20048;-63
2020/12/08 00:34:07;;;;;;;29.23;13.68;;;3.10;77.60;;;;;;5045674;28;20202;-63
2020/12/08 00:36:33;;;;;;;42.65;15.15;;;3.10;77.90;;;;;;5042176;28;20112;-63
2020/12/08 00:38:58;;;;;;;78.75;15.27;;;2.90;78.30;;;;;;5042534;28;20033;-63
2020/12/08 00:41:24;;;;;;;46.72;15.23;;;2.70;79.70;;;;;;5042289;28;20033;-63
2020/12/08 00:43:50;;;;;;;98.70;15.98;;;2.70;79.60;;;;;;5041009;28;20021;-63
2020/12/08 00:46:16;;;;;;;94.32;15.93;;;2.60;80.10;;;;;;5025711;28;20057;-63
2020/12/08 00:48:42;;;;;;;116.93;15.98;;;2.40;80.10;;;;;;5037972;28;20048;-63
2020/12/08 00:51:08;;;;;;;45.83;15.15;;;2.20;81.30;;;;;;5042668;28;20039;-63
2020/12/08 00:53:33;;;;;;;66.22;14.40;;;2.30;81.30;;;;;;5042633;28;20041;-63
2020/12/08 00:55:59;;;;;;;85.30;15.35;;;2.40;81.30;;;;;;5042532;28;20044;-63
2020/12/08 00:58:24;;;;;;;69.00;15.85;;;2.30;81.60;;;;;;5045329;28;20033;-63
2020/12/08 01:00:50;;;;;;;49.10;15.30;;;2.40;80.90;;;;;;5039393;28;20074;-63
2020/12/08 01:03:16;;;;;;;70.57;14.15;;;2.50;80.40;;;;;;5041972;28;20038;-63
2020/12/08 01:05:42;;;;;;;38.80;13.40;;;2.40;80.20;;;;;;5040854;28;20096;-63
2020/12/08 01:08:07;;;;;;;52.50;13.13;;;2.30;80.60;;;;;;5040998;28;20022;-63
2020/12/08 01:10:33;;;;;;;30.50;12.65;;;2.10;81.00;;;;;;5044822;28;20168;-63
2020/12/08 01:12:58;;;;;;;27.48;12.73;;;2.40;79.90;;;;;;5042129;28;20052;-62
2020/12/08 01:15:24;;;;;;;39.25;13.50;;;2.50;78.80;;;;;;5039826;28;20096;-63
2020/12/08 01:17:49;;;;;;;68.78;14.55;;;2.20;80.30;;;;;;5040836;28;20044;-63
2020/12/08 01:20:15;;;;;;;49.92;12.95;;;1.90;81.50;;;;;;5041278;28;20033;-63
2020/12/08 01:22:40;;;;;;;72.03;12.38;;;1.90;80.90;;;;;;5045150;28;20040;-63
2020/12/08 01:25:06;;;;;;;96.20;13.32;;;1.90;80.70;;;;;;5041131;28;20048;-63
2020/12/08 01:27:32;;;;;;;68.93;13.32;;;1.90;81.40;;;;;;5041892;28;20041;-63
2020/12/08 01:29:58;;;;;;;24.75;12.40;;;1.90;82.00;;;;;;5040594;28;20041;-63
2020/12/08 01:32:23;;;;;;;24.33;12.18;;;2.20;80.30;;;;;;5040416;28;20041;-63
2020/12/08 01:34:49;;;;;;;40.50;13.05;;;2.40;79.70;;;;;;5044342;28;20120;-63
2020/12/08 01:37:14;;;;;;;38.58;13.15;;;2.40;79.50;;;;;;5040546;28;20225;-63
2020/12/08 01:39:40;;;;;;;24.60;12.25;;;2.50;79.40;;;;;;5041052;28;20484;-63
2020/12/08 01:42:06;;;;;;;25.10;12.55;;;2.50;79.20;;;;;;5041738;28;20043;-63
2020/12/08 01:44:31;;;;;;;46.90;13.13;;;2.50;79.00;;;;;;5041380;28;20034;-63
2020/12/08 01:46:57;;;;;;;42.72;13.05;;;2.50;79.60;;;;;;5044813;28;20098;-63
2020/12/08 01:49:23;;;;;;;26.70;12.82;;;2.50;79.40;;;;;;5040101;28;20045;-62
2020/12/08 01:51:48;;;;;;;41.45;12.50;;;2.50;79.00;;;;;;5040521;28;20038;-63
2020/12/08 01:54:14;;;;;;;57.45;12.90;;;2.60;79.50;;;;;;5041373;28;20225;-63
2020/12/08 01:56:40;;;;;;;51.83;12.55;;;2.40;80.10;;;;;;5041005;28;20017;-63
2020/12/08 01:59:05;;;;;;;66.88;12.60;;;2.20;80.10;;;;;;5044390;28;20084;-63
2020/12/08 02:01:31;;;;;;;67.15;13.40;;;2.00;81.00;;;;;;5040315;28;20044;-62
2020/12/08 02:03:56;;;;;;;37.95;12.95;;;2.10;81.20;;;;;;5040061;28;20225;-63
2020/12/08 02:06:24;;;;;;;50.53;11.90;;;2.20;80.40;;;;;;5039650;28;20104;-63
2020/12/08 02:08:50;;;;;;;31.55;11.27;;;2.40;79.70;;;;;;5039461;28;20031;-62
2020/12/08 02:11:16;;;;;;;51.20;12.43;;;2.20;78.50;;;;;;5044249;28;20037;-63
2020/12/08 02:13:41;;;;;;;62.80;12.45;;;2.10;79.70;;;;;;5042329;28;20045;-63
2020/12/08 02:16:07;;;;;;;47.30;12.40;;;1.90;80.10;;;;;;5038551;28;20043;-63
2020/12/08 02:18:32;;;;;;;40.03;12.10;;;2.00;80.40;;;;;;5032505;28;20053;-64
2020/12/08 02:21:00;;;;;;;39.08;11.65;;;2.20;80.00;;;;;;5021484;28;20085;-63
2020/12/08 02:23:25;;;;;;;42.97;11.75;;;2.10;79.90;;;;;;5024401;28;20376;-63
2020/12/08 02:25:55;;;;;;;27.63;11.13;;;2.00;79.70;;;;;;5037743;28;20068;-63
2020/12/08 02:28:21;;;;;;;45.38;11.55;;;2.10;79.30;;;;;;5042438;28;20044;-63
2020/12/08 02:30:46;;;;;;;39.38;11.85;;;2.00;78.90;;;;;;5045170;28;20053;-63
2020/12/08 02:33:12;;;;;;;77.97;12.52;;;1.80;79.40;;;;;;5044443;28;20044;-63
2020/12/08 02:35:37;;;;;;;66.05;12.32;;;1.80;80.00;;;;;;5048260;28;20029;-63
2020/12/08 02:38:03;;;;;;;57.08;12.88;;;1.80;79.90;;;;;;5044790;28;20033;-63
2020/12/08 02:40:28;;;;;;;54.35;12.60;;;1.70;81.70;;;;;;5044622;28;20037;-63
2020/12/08 02:42:54;;;;;;;47.70;11.93;;;1.80;81.20;;;;;;5044681;28;20450;-63
2020/12/08 02:45:19;;;;;;;95.47;12.75;;;2.00;79.60;;;;;;5044320;28;20025;-63
2020/12/08 02:47:46;;;;;;;87.57;13.27;;;1.80;80.60;;;;;;5047820;28;20136;-63
2020/12/08 02:50:11;;;;;;;69.35;12.70;;;1.50;81.60;;;;;;5043572;28;20040;-63
2020/12/08 02:52:37;;;;;;;103.90;13.43;;;1.40;82.50;;;;;;5044706;28;20037;-63
2020/12/08 02:55:03;;;;;;;155.63;14.43;;;1.40;83.60;;;;;;5035536;28;20269;-63
2020/12/08 02:57:28;;;;;;;166.73;13.68;;;1.30;83.20;;;;;;5026881;28;20324;-63
2020/12/08 02:59:54;;;;;;;113.97;13.70;;;1.20;82.40;;;;;;5047320;28;20033;-63
2020/12/08 03:02:19;;;;;;;67.93;11.82;;;1.10;82.90;;;;;;5044276;28;20033;-63
2020/12/08 03:04:45;;;;;;;35.70;11.20;;;1.20;82.50;;;;;;5044249;28;20037;-63
2020/12/08 03:07:10;;;;;;;84.15;12.65;;;1.30;81.50;;;;;;5075817;28;20034;-63
2020/12/08 03:09:36;;;;;;;52.08;11.73;;;1.40;81.70;;;;;;5043240;28;20041;-63
2020/12/08 03:12:08;;;;;;;34.80;10.82;;;1.30;81.60;;;;;;5047089;28;20099;-63
2020/12/08 03:14:33;;;;;;;53.45;10.90;;;1.30;81.20;;;;;;4973384;28;20034;-63
2020/12/08 03:16:59;;;;;;;101.22;11.35;;;1.00;80.90;;;;;;5041085;28;20101;-63
2020/12/08 03:19:24;;;;;;;30.50;10.00;;;0.90;81.50;;;;;;5042330;28;20044;-63
2020/12/08 03:21:50;;;;;;;21.52;10.40;;;1.00;80.70;;;;;;5042564;28;20044;-64
2020/12/08 03:24:15;;;;;;;32.53;11.38;;;1.30;80.50;;;;;;5047041;28;20060;-63
2020/12/08 03:26:41;;;;;;;25.90;11.63;;;1.20;80.80;;;;;;5043325;28;20033;-63
2020/12/08 03:29:06;;;;;;;44.60;12.00;;;1.40;80.30;;;;;;5044072;28;20325;-63
2020/12/08 03:31:32;;;;;;;32.80;12.32;;;1.20;82.20;;;;;;5058633;28;20029;-63
2020/12/08 03:33:58;;;;;;;52.55;13.30;;;1.20;81.60;;;;;;5043691;28;20221;-64
2020/12/08 03:36:23;;;;;;;51.40;13.73;;;1.40;81.40;;;;;;5042713;28;20081;-64
2020/12/08 03:38:49;;;;;;;43.20;13.43;;;1.50;81.10;;;;;;5026699;28;20041;-64
2020/12/08 03:41:21;;;;;;;82.50;13.45;;;1.60;80.80;;;;;;5040058;28;20047;-63
2020/12/08 03:43:48;;;;;;;53.30;12.70;;;1.40;81.20;;;;;;5041574;28;20041;-63
2020/12/08 03:46:23;;;;;;;60.38;11.20;;;1.40;81.50;;;;;;5041118;28;20041;-63
2020/12/08 03:48:50;;;;;;;38.90;10.98;;;1.40;80.40;;;;;;5029364;28;20090;-63
2020/12/08 03:51:19;;;;;;;35.88;11.40;;;1.30;80.60;;;;;;5046629;28;20255;-63
2020/12/08 03:53:45;;;;;;;32.95;11.20;;;1.20;80.60;;;;;;5041987;28;20064;-64
2020/12/08 03:56:12;;;;;;;26.20;12.07;;;1.40;80.40;;;;;;5043452;28;20053;-63
2020/12/08 03:58:38;;;;;;;29.27;11.32;;;1.40;79.90;;;;;;5043551;28;20038;-63
2020/12/08 04:01:03;;;;;;;102.13;11.48;;;1.50;79.80;;;;;;5042536;28;20064;-63
2020/12/08 04:03:29;;;;;;;74.10;11.95;;;1.40;79.60;;;;;;5044951;28;20022;-63
2020/12/08 04:06:04;;;;;;;38.78;11.05;;;1.00;81.00;;;;;;5044106;28;20317;-63
2020/12/08 04:08:30;;;;;;;27.15;10.02;;;0.90;80.90;;;;;;5041020;28;20033;-63
2020/12/08 04:10:56;;;;;;;56.78;9.48;;;1.20;80.40;;;;;;5043401;28;20040;-63
2020/12/08 04:13:21;;;;;;;54.78;10.63;;;1.20;79.30;;;;;;5043219;28;20345;-63
2020/12/08 04:15:47;;;;;;;53.75;10.40;;;0.90;80.40;;;;;;5043372;28;20033;-63
2020/12/08 04:18:13;;;;;;;23.38;9.55;;;0.90;80.30;;;;;;5046354;28;20088;-64
2020/12/08 04:20:42;;;;;;;22.60;9.75;;;1.10;79.80;;;;;;5043084;28;20041;-63
2020/12/08 04:23:10;;;;;;;31.67;9.93;;;1.00;79.30;;;;;;5039605;28;20079;-63
2020/12/08 04:25:36;;;;;;;39.35;10.75;;;1.10;79.90;;;;;;5041957;28;20034;-63
2020/12/08 04:28:01;;;;;;;24.17;10.00;;;1.10;80.10;;;;;;5041533;28;20037;-63
2020/12/08 04:30:27;;;;;;;32.47;11.35;;;1.10;80.20;;;;;;5045872;28;20025;-63
2020/12/08 04:32:53;;;;;;;36.30;11.85;;;1.30;80.20;;;;;;5075258;28;20040;-63
2020/12/08 04:35:18;;;;;;;28.33;9.80;;;1.00;80.60;;;;;;5041361;28;20041;-63
2020/12/08 04:37:44;;;;;;;31.50;9.75;;;1.00;80.50;;;;;;5041920;28;20037;-63
2020/12/08 04:40:09;;;;;;;23.80;10.30;;;1.10;80.20;;;;;;5042664;28;20045;-64
2020/12/08 04:42:45;;;;;;;17.38;9.60;;;1.10;79.40;;;;;;5045323;28;20033;-63
2020/12/08 04:45:11;;;;;;;29.85;9.65;;;1.20;79.20;;;;;;5003763;28;20037;-63
2020/12/08 04:47:38;;;;;;;23.92;9.15;;;1.30;78.40;;;;;;5041393;28;20255;-63
2020/12/08 04:50:03;;;;;;;50.13;10.10;;;1.40;78.00;;;;;;5040883;28;20041;-63
2020/12/08 04:52:29;;;;;;;69.88;11.32;;;1.30;78.40;;;;;;5039941;28;20102;-63
2020/12/08 04:54:55;;;;;;;62.13;10.80;;;0.90;79.40;;;;;;5045070;28;20041;-63
2020/12/08 04:57:23;;;;;;;85.82;10.82;;;0.90;80.00;;;;;;5040867;28;20040;-63
2020/12/08 04:59:48;;;;;;;101.50;12.00;;;0.80;80.50;;;;;;5041703;28;20055;-63
2020/12/08 05:02:14;;;;;;;48.85;10.95;;;0.80;81.20;;;;;;5041243;28;20037;-63
2020/12/08 05:04:39;;;;;;;48.30;11.27;;;0.90;80.80;;;;;;5040004;28;20045;-63
2020/12/08 05:07:06;;;;;;;25.00;10.40;;;0.90;80.60;;;;;;5041034;28;20097;-63
2020/12/08 05:09:42;;;;;;;24.30;9.35;;;0.90;80.40;;;;;;5044845;28;20033;-63
2020/12/08 05:12:08;;;;;;;49.67;10.55;;;1.10;79.20;;;;;;5039153;28;20057;-64
2020/12/08 05:14:41;;;;;;;31.25;10.38;;;0.90;79.20;;;;;;5039394;28;20340;-64
2020/12/08 05:17:06;;;;;;;32.47;9.30;;;0.90;79.50;;;;;;5041150;28;20045;-64
2020/12/08 05:19:32;;;;;;;28.80;9.90;;;0.90;79.30;;;;;;5042362;28;20033;-63
2020/12/08 05:21:59;;;;;;;17.75;9.07;;;0.90;79.50;;;;;;5041943;28;20033;-65
2020/12/08 05:24:28;;;;;;;26.95;10.38;;;1.00;79.30;;;;;;5044577;28;20033;-63
2020/12/08 05:27:01;;;;;;;15.15;9.10;;;0.90;78.90;;;;;;5042016;28;20053;-64
2020/12/08 05:29:27;;;;;;;16.20;9.02;;;0.90;79.00;;;;;;5041505;28;20033;-64
2020/12/08 05:31:53;;;;;;;17.13;9.77;;;0.90;78.30;;;;;;5042030;28;20227;-63
2020/12/08 05:34:20;;;;;;;19.40;9.07;;;0.90;78.40;;;;;;5057665;28;20049;-64
2020/12/08 05:36:53;;;;;;;27.05;9.70;;;1.00;78.10;;;;;;5044555;28;20029;-63
2020/12/08 05:39:20;;;;;;;16.48;9.73;;;0.90;78.20;;;;;;5042629;28;20044;-63
2020/12/08 05:41:46;;;;;;;16.70;10.00;;;0.90;78.90;;;;;;5041189;28;20354;-62
2020/12/08 05:44:23;;;;;;;18.77;9.30;;;1.00;78.40;;;;;;5041874;28;20057;-63
2020/12/08 05:46:48;;;;;;;16.83;9.88;;;0.90;78.30;;;;;;5037928;28;20038;-63
2020/12/08 05:49:14;;;;;;;14.85;9.32;;;1.20;78.40;;;;;;5040804;28;20036;-63
2020/12/08 05:51:44;;;;;;;30.48;9.60;;;1.20;77.50;;;;;;5044412;28;20124;-63
2020/12/08 05:54:18;;;;;;;23.75;9.70;;;1.00;77.20;;;;;;5040912;28;20083;-62
2020/12/08 05:56:44;;;;;;;20.67;9.65;;;0.80;77.70;;;;;;5039536;28;20100;-63
2020/12/08 05:59:09;;;;;;;15.60;8.93;;;0.90;77.60;;;;;;5038158;28;20324;-63
2020/12/08 06:01:46;;;;;;;15.50;9.40;;;0.90;77.60;;;;;;5038409;28;20038;-63
2020/12/08 06:04:11;;;;;;;15.55;9.20;;;0.90;77.40;;;;;;5035951;28;20042;-63
2020/12/08 06:06:48;;;;;;;19.08;9.35;;;0.60;77.60;;;;;;5044497;28;20026;-63
2020/12/08 06:09:27;;;;;;;17.23;9.35;;;0.90;77.50;;;;;;5035047;28;20041;-63
2020/12/08 06:11:53;;;;;;;14.85;9.23;;;1.00;76.50;;;;;;5007599;28;20326;-63
2020/12/08 06:14:37;;;;;;;14.30;8.95;;;1.10;76.50;;;;;;5028855;28;20157;-63
2020/12/08 06:17:07;;;;;;;13.30;8.30;;;0.90;76.70;;;;;;5038612;28;20034;-63
2020/12/08 06:19:35;;;;;;;13.70;8.90;;;0.90;76.60;;;;;;5035483;28;20251;-63
2020/12/08 06:22:10;;;;;;;14.98;8.77;;;1.00;76.70;;;;;;5024231;28;20194;-63
2020/12/08 06:24:35;;;;;;;12.43;7.85;;;1.00;76.30;;;;;;5020392;28;20113;-63
2020/12/08 06:27:01;;;;;;;14.50;8.95;;;0.90;76.60;;;;;;5015665;28;20045;-64
2020/12/08 06:29:26;;;;;;;14.93;8.95;;;1.10;76.80;;;;;;5020599;28;20042;-63
2020/12/08 06:31:52;;;;;;;13.20;8.45;;;1.20;76.70;;;;;;5021087;28;20045;-63
2020/12/08 06:34:31;;;;;;;14.15;8.50;;;1.00;76.30;;;;;;5021253;28;20079;-64
2020/12/08 06:37:07;;;;;;;12.90;8.32;;;1.10;76.50;;;;;;5024064;28;20305;-63
2020/12/08 06:39:33;;;;;;;13.15;9.00;;;1.30;76.50;;;;;;5040483;28;20041;-63
2020/12/08 06:41:58;;;;;;;14.43;9.13;;;1.20;76.50;;;;;;5020087;28;20312;-63
2020/12/08 06:44:24;;;;;;;14.93;9.63;;;1.20;76.90;;;;;;5016584;28;20040;-63
2020/12/08 06:46:53;;;;;;;15.93;9.10;;;1.20;77.20;;;;;;5017947;28;20030;-64
2020/12/08 06:49:19;;;;;;;18.77;9.43;;;1.40;76.80;;;;;;5040661;28;20055;-64
2020/12/08 06:51:44;;;;;;;12.65;8.45;;;1.40;77.00;;;;;;5043717;28;20037;-63
2020/12/08 06:54:14;;;;;;;14.73;9.02;;;1.30;77.00;;;;;;5039890;28;20044;-63
2020/12/08 06:56:39;;;;;;;12.68;8.52;;;1.30;77.20;;;;;;5038064;28;20037;-63
2020/12/08 06:59:05;;;;;;;14.48;9.60;;;1.20;76.60;;;;;;5041400;28;20351;-63
2020/12/08 07:01:30;;;;;;;14.50;9.00;;;1.00;76.90;;;;;;5039188;28;20081;-63
2020/12/08 07:03:56;;;;;;;14.40;9.43;;;0.90;77.10;;;;;;5043619;28;20025;-63
2020/12/08 07:06:21;;;;;;;14.80;9.63;;;0.90;77.60;;;;;;5035523;28;20041;-63
2020/12/08 07:08:48;;;;;;;15.77;9.80;;;1.20;77.40;;;;;;5028968;28;20359;-63
2020/12/08 07:11:23;;;;;;;17.58;10.32;;;1.20;77.10;;;;;;5003439;28;20053;-64
2020/12/08 07:13:59;;;;;;;15.43;9.65;;;1.30;77.40;;;;;;5022000;28;20038;-63
2020/12/08 07:16:27;;;;;;;16.88;10.45;;;1.30;77.50;;;;;;5027337;28;20029;-63
2020/12/08 07:18:54;;;;;;;14.02;8.98;;;1.40;77.20;;;;;;5041678;28;20033;-63
2020/12/08 07:21:20;;;;;;;13.45;9.07;;;1.40;76.80;;;;;;5042025;28;20037;-63
2020/12/08 07:23:46;;;;;;;15.45;8.75;;;1.50;76.80;;;;;;5042758;28;20037;-63
2020/12/08 07:26:13;;;;;;;20.50;9.52;;;1.20;77.00;;;;;;5038914;28;20043;-62
2020/12/08 07:28:39;;;;;;;19.13;7.97;;;1.20;76.40;;;;;;5045900;28;20202;-62
2020/12/08 07:31:04;;;;;;;14.23;8.90;;;1.30;76.10;;;;;;5044057;28;20044;-62
2020/12/08 07:33:31;;;;;;;11.32;7.93;;;1.30;75.60;;;;;;5042318;28;20336;-62
2020/12/08 07:35:57;;;;;;;13.77;8.32;;;1.30;75.80;;;;;;5033498;28;20106;-62
2020/12/08 07:38:23;;;;;;;16.85;9.38;;;1.30;76.30;;;;;;5024523;28;20037;-63
2020/12/08 07:40:48;;;;;;;14.93;9.18;;;1.30;76.20;;;;;;5046736;28;20244;-63
2020/12/08 07:43:14;;;;;;;12.10;8.35;;;1.40;75.60;;;;;;5043764;28;20108;-62
2020/12/08 07:45:46;;;;;;;17.10;9.55;;;1.50;75.20;;;;;;5042904;28;20038;-62
2020/12/08 07:48:16;;;;;;;14.40;9.45;;;1.60;75.80;;;;;;5043739;28;20139;-62
2020/12/08 07:50:42;;;;;;;13.32;9.13;;;1.50;75.70;;;;;;5040988;28;20037;-62
2020/12/08 07:53:08;;;;;;;14.48;9.25;;;1.60;76.00;;;;;;5043097;28;20036;-63
2020/12/08 07:55:38;;;;;;;14.45;9.13;;;1.70;75.80;;;;;;5046428;28;20083;-62
2020/12/08 07:58:03;;;;;;;15.90;9.32;;;1.70;75.70;;;;;;5043278;28;20072;-62
2020/12/08 08:00:29;;;;;;;13.70;9.23;;;1.50;75.40;;;;;;5036956;28;20041;-62
2020/12/08 08:02:55;;;;;;;14.25;8.75;;;1.50;75.20;;;;;;5041962;28;20038;-63
2020/12/08 08:05:21;;;;;;;16.05;9.30;;;1.50;75.30;;;;;;5040280;28;20037;-62
2020/12/08 08:07:46;;;;;;;15.25;10.05;;;1.50;75.30;;;;;;5046335;28;20026;-62
2020/12/08 08:10:12;;;;;;;16.58;9.13;;;1.60;75.70;;;;;;5043638;28;20320;-62
2020/12/08 08:12:38;;;;;;;16.75;10.48;;;1.60;75.50;;;;;;5040626;28;20061;-62
2020/12/08 08:15:04;;;;;;;16.77;10.60;;;1.70;75.00;;;;;;5043364;28;20041;-63
2020/12/08 08:17:30;;;;;;;15.48;10.25;;;1.60;74.80;;;;;;5043161;28;20037;-62
2020/12/08 08:19:55;;;;;;;15.18;10.07;;;1.60;75.00;;;;;;5045040;28;20178;-62
2020/12/08 08:22:21;;;;;;;17.75;11.55;;;1.60;75.50;;;;;;5040912;28;20033;-62
2020/12/08 08:24:47;;;;;;;16.40;10.50;;;1.60;75.00;;;;;;5042777;28;20049;-62
2020/12/08 08:27:12;;;;;;;15.85;10.68;;;1.60;75.50;;;;;;5042157;28;20049;-63
2020/12/08 08:29:38;;;;;;;17.83;10.25;;;1.70;75.60;;;;;;5036733;28;20044;-63
2020/12/08 08:32:03;;;;;;;19.13;10.43;;;1.60;75.00;;;;;;5046118;28;20225;-63
2020/12/08 08:34:29;;;;;;;15.30;10.13;;;1.50;75.80;;;;;;5042575;28;20209;-62
2020/12/08 08:36:55;;;;;;;17.40;10.82;;;1.60;75.90;;;;;;5074531;28;20078;-62
2020/12/08 08:39:21;;;;;;;16.90;10.48;;;1.60;75.60;;;;;;5041671;28;20034;-62
2020/12/08 08:41:47;;;;;;;17.00;10.63;;;1.40;76.30;;;;;;5042959;28;20069;-62
2020/12/08 08:44:13;;;;;;;15.43;10.32;;;1.60;76.80;;;;;;5045157;28;20033;-62
2020/12/08 08:46:42;;;;;;;17.52;11.15;;;1.80;76.40;;;;;;5043339;28;20158;-62
2020/12/08 08:49:08;;;;;;;14.30;9.65;;;1.80;76.10;;;;;;5040620;28;20100;-62
2020/12/08 08:51:36;;;;;;;15.60;10.40;;;1.90;76.40;;;;;;5041973;28;20025;-62
2020/12/08 08:54:02;;;;;;;15.32;10.23;;;1.90;76.20;;;;;;5042714;28;20040;-62
2020/12/08 08:56:28;;;;;;;17.27;10.65;;;1.90;76.30;;;;;;5045500;28;20094;-62
2020/12/08 08:58:53;;;;;;;18.13;10.80;;;1.90;76.90;;;;;;5041113;28;20053;-62
2020/12/08 09:01:19;;;;;;;21.63;11.43;;;2.10;77.10;;;;;;5042709;28;20040;-62
2020/12/08 09:03:45;;;;;;;16.63;9.88;;;2.10;76.20;;;;;;5041910;28;20057;-62
2020/12/08 09:06:12;;;;;;;18.27;9.63;;;2.10;76.50;;;;;;5042445;28;20105;-62
2020/12/08 09:08:38;;;;;;;19.27;10.35;;;2.10;76.70;;;;;;5045374;28;20037;-62
2020/12/08 09:11:03;;;;;;;17.75;11.15;;;2.10;76.30;;;;;;5042044;28;20037;-62
2020/12/08 09:13:29;;;;;;;16.92;11.27;;;2.20;76.70;;;;;;5040807;28;20103;-62
2020/12/08 09:15:55;;;;;;;18.83;10.57;;;2.20;76.00;;;;;;5042141;28;20045;-62
2020/12/08 09:18:20;;;;;;;18.33;10.30;;;2.30;76.40;;;;;;5039319;28;20064;-62
2020/12/08 09:20:46;;;;;;;17.20;10.65;;;2.30;75.30;;;;;;5043578;28;20033;-63
2020/12/08 09:23:11;;;;;;;18.67;10.55;;;2.20;75.20;;;;;;5042761;28;20240;-62
2020/12/08 09:25:37;;;;;;;17.08;10.93;;;2.40;75.80;;;;;;5041104;28;20221;-62
2020/12/08 09:28:03;;;;;;;19.95;10.75;;;2.40;76.00;;;;;;5040304;28;20036;-62
2020/12/08 09:30:28;;;;;;;16.17;10.50;;;2.40;75.20;;;;;;5041692;28;20115;-62
2020/12/08 09:32:54;;;;;;;16.60;10.95;;;2.40;75.60;;;;;;5044989;28;20038;-62
2020/12/08 09:35:20;;;;;;;15.35;10.60;;;2.40;75.30;;;;;;5041309;28;20041;-62
2020/12/08 09:37:45;;;;;;;19.88;11.52;;;2.40;76.00;;;;;;5041536;28;20210;-62
2020/12/08 09:40:11;;;;;;;18.05;10.95;;;2.50;76.10;;;;;;5038892;28;20097;-62
2020/12/08 09:42:44;;;;;;;17.05;10.95;;;2.60;76.10;;;;;;5039606;28;20037;-62
2020/12/08 09:45:10;;;;;;;17.55;11.27;;;2.70;76.00;;;;;;5041244;28;20032;-62
2020/12/08 09:47:35;;;;;;;16.75;11.48;;;2.80;76.10;;;;;;5044232;28;20033;-62
2020/12/08 09:50:07;;;;;;;18.10;10.30;;;2.90;76.20;;;;;;5042320;28;20080;-62
2020/12/08 09:52:33;;;;;;;20.85;11.27;;;2.80;76.30;;;;;;5010925;28;20039;-62
2020/12/08 09:54:58;;;;;;;17.13;11.23;;;2.90;76.40;;;;;;5028017;28;20075;-62
2020/12/08 09:57:24;;;;;;;18.90;11.18;;;2.90;76.50;;;;;;5041222;28;20038;-62
2020/12/08 09:59:53;;;;;;;21.42;11.45;;;2.80;76.60;;;;;;5044368;28;20075;-62
2020/12/08 10:02:20;;;;;;;18.05;11.30;;;3.00;76.20;;;;;;5042198;28;20041;-62
2020/12/08 10:04:46;;;;;;;17.30;11.23;;;3.20;76.60;;;;;;5022449;28;20045;-62
2020/12/08 10:07:17;;;;;;;18.75;10.98;;;3.20;76.70;;;;;;5020066;28;20045;-62
2020/12/08 10:09:43;;;;;;;;;;;3.20;76.50;;;;;;5022485;28;20080;-62
2020/12/08 10:12:09;;;;;;;22.35;10.82;;;3.30;75.70;;;;;;5024179;28;20131;-62
2020/12/08 10:14:35;;;;;;;17.42;10.18;;;3.10;74.70;;;;;;5021456;28;20210;-62
2020/12/08 10:17:01;;;;;;;19.40;10.82;;;3.30;74.60;;;;;;5020977;28;20340;-62
2020/12/08 10:19:27;;;;;;;18.17;9.95;;;3.10;75.10;;;;;;5019083;28;20093;-62
2020/12/08 10:21:56;;;;;;;17.98;10.10;;;3.20;75.20;;;;;;5022367;28;20041;-62
2020/12/08 10:24:22;;;;;;;16.90;10.10;;;3.10;74.40;;;;;;5024313;28;20022;-62
2020/12/08 10:26:48;;;;;;;14.25;10.18;;;3.10;74.00;;;;;;5021983;28;20030;-62
2020/12/08 10:29:13;;;;;;;19.30;10.35;;;3.20;75.10;;;;;;5021149;28;20030;-62
2020/12/08 10:31:39;;;;;;;15.30;9.93;;;3.30;74.50;;;;;;5021392;28;20041;-62
2020/12/08 10:34:05;;;;;;;17.40;9.90;;;3.40;74.20;;;;;;5020755;28;20063;-62
2020/12/08 10:36:30;;;;;;;16.05;10.02;;;3.40;73.50;;;;;;5024408;28;20034;-61
2020/12/08 10:38:56;;;;;;;18.33;10.50;;;3.60;73.90;;;;;;5018104;28;20325;-62
2020/12/08 10:41:25;;;;;;;17.50;10.02;;;3.70;74.30;;;;;;5020635;28;20040;-62
2020/12/08 10:43:51;;;;;;;16.58;9.73;;;3.70;74.00;;;;;;5021373;28;20089;-62
2020/12/08 10:46:17;;;;;;;13.77;9.02;;;3.80;73.30;;;;;;5021556;28;20057;-62
2020/12/08 10:48:42;;;;;;;14.88;9.55;;;3.90;71.90;;;;;;5024424;28;20301;-63
2020/12/08 10:51:08;;;;;;;18.45;10.30;;;4.00;72.00;;;;;;5017380;28;20057;-62
2020/12/08 10:53:34;;;;;;;15.93;10.60;;;4.10;72.10;;;;;;5024802;28;20076;-62
2020/12/08 10:56:00;;;;;;;20.05;12.65;;;4.20;73.00;;;;;;5025100;28;20046;-62
2020/12/08 10:58:25;;;;;;;18.88;11.80;;;4.40;72.80;;;;;;5023673;28;20045;-62
2020/12/08 11:00:51;;;;;;;20.08;12.05;;;4.20;72.20;;;;;;5024578;28;20038;-62
2020/12/08 11:03:17;;;;;;;17.83;11.23;;;4.00;71.90;;;;;;5027698;28;20057;-61
2020/12/08 11:05:42;;;;;;;19.38;12.20;;;4.10;72.40;;;;;;5020055;28;20229;-62
2020/12/08 11:08:10;;;;;;;17.33;10.55;;;3.90;72.20;;;;;;5024330;28;20040;-62
2020/12/08 11:10:35;;;;;;;19.95;10.73;;;3.90;72.20;;;;;;5024292;28;20049;-63
2020/12/08 11:13:01;;;;;;;16.60;10.38;;;3.90;72.00;;;;;;5024576;28;20050;-64
2020/12/08 11:15:27;;;;;;;14.80;9.52;;;3.90;72.00;;;;;;5027067;28;20042;-64
2020/12/08 11:17:52;;;;;;;16.30;9.48;;;4.10;71.70;;;;;;5024527;28;20041;-66
2020/12/08 11:20:19;;;;;;;13.57;8.63;;;4.10;70.70;;;;;;5025009;28;20080;-63
2020/12/08 11:22:44;;;;;;;13.75;8.00;;;4.00;70.30;;;;;;5024841;28;20057;-63
2020/12/08 11:25:10;;;;;;;14.48;8.93;;;4.10;70.00;;;;;;5024338;28;20038;-63
2020/12/08 11:27:36;;;;;;;15.60;9.63;;;4.20;70.20;;;;;;5027267;28;20241;-63
2020/12/08 11:30:02;;;;;;;17.95;9.73;;;4.30;70.60;;;;;;5020108;28;20101;-62
2020/12/08 11:32:28;;;;;;;16.10;9.30;;;4.40;71.10;;;;;;5034393;28;20049;-62
2020/12/08 11:34:53;;;;;;;15.63;9.13;;;4.40;70.80;;;;;;5043558;28;20045;-62
2020/12/08 11:37:19;;;;;;;15.85;9.27;;;4.50;70.60;;;;;;5043975;28;20029;-62
2020/12/08 11:39:45;;;;;;;14.23;8.73;;;4.50;71.40;;;;;;5026728;28;20068;-62
2020/12/08 11:42:13;;;;;;;14.38;9.10;;;4.50;71.00;;;;;;5039662;28;20037;-62
2020/12/08 11:44:39;;;;;;;16.20;9.38;;;4.60;70.70;;;;;;5043964;28;20096;-62
2020/12/08 11:47:04;;;;;;;14.45;9.50;;;4.60;70.50;;;;;;5043503;28;20037;-62
2020/12/08 11:49:32;;;;;;;13.73;8.63;;;4.60;69.90;;;;;;5043741;28;20078;-62
2020/12/08 11:51:58;;;;;;;16.48;8.38;;;4.50;69.90;;;;;;5046659;28;20048;-62
2020/12/08 11:54:24;;;;;;;14.77;8.48;;;4.60;69.30;;;;;;5042686;28;20034;-62
2020/12/08 11:56:49;;;;;;;14.30;7.50;;;4.50;68.50;;;;;;5028956;28;20038;-62
2020/12/08 11:59:15;;;;;;;15.07;7.60;;;4.50;68.70;;;;;;5023062;28;20045;-62
2020/12/08 12:01:41;;;;;;;11.82;7.30;;;4.60;67.50;;;;;;5027314;28;20068;-62
2020/12/08 12:04:06;;;;;;;14.63;8.25;;;4.70;69.20;;;;;;5046078;28;20069;-64
2020/12/08 12:06:32;;;;;;;13.63;8.05;;;4.80;69.40;;;;;;5023220;28;20037;-62
2020/12/08 12:08:58;;;;;;;12.32;8.00;;;4.90;69.40;;;;;;5038196;28;20041;-61
2020/12/08 12:11:24;;;;;;;15.77;8.73;;;4.90;68.80;;;;;;5043352;28;20044;-62
2020/12/08 12:13:49;;;;;;;16.08;8.98;;;4.90;67.60;;;;;;5039529;28;20388;-62
2020/12/08 12:16:15;;;;;;;13.32;8.07;;;4.90;68.30;;;;;;5045808;28;20034;-62
2020/12/08 12:18:41;;;;;;;11.95;7.90;;;4.90;67.70;;;;;;5042855;28;20037;-62
2020/12/08 12:21:07;;;;;;;13.75;7.85;;;4.90;67.10;;;;;;5043719;28;20105;-61
2020/12/08 12:23:32;;;;;;;11.18;7.57;;;4.90;67.30;;;;;;5043083;28;20041;-62
2020/12/08 12:25:58;;;;;;;9.70;7.00;;;4.90;66.70;;;;;;5041340;28;20272;-62
2020/12/08 12:28:24;;;;;;;10.65;7.15;;;4.80;66.30;;;;;;5045890;28;20056;-62
2020/12/08 12:30:50;;;;;;;9.80;6.60;;;4.90;66.40;;;;;;5042239;28;20080;-62
2020/12/08 12:33:16;;;;;;;11.52;7.22;;;4.90;66.30;;;;;;5042804;28;20034;-62
2020/12/08 12:35:41;;;;;;;11.05;6.30;;;4.80;65.70;;;;;;5040709;28;20045;-62